sensor_id;sensor_type;location;lat;lon;timestamp;temperature;humidity
59961;DHT22;55902;-37.980;-63.602;2022-09-03T00:02:23;13.50;43.00
59961;DHT22;55902;-37.980;-63.602;2022-09-03T00:07:50;13.10;44.20
59961;DHT22;55902;-37.980;-63.602;2022-09-03T00:13:16;12.80;45.20
59961;DHT22;55902;-37.980;-63.602;2022-09-03T00:15:43;12.60;45.20
59961;DHT22;55902;-37.980;-63.602;2022-09-03T00:21:48;12.60;45.60
59961;DHT22;55902;-37.980;-63.602;2022-09-03T00:24:18;12.50;45.20
59961;DHT22;55902;-37.980;-63.602;2022-09-03T00:26:51;12.40;45.70
59961;DHT22;55902;-37.980;-63.602;2022-09-03T00:32:21;12.20;46.30
59961;DHT22;55902;-37.980;-63.602;2022-09-03T00:34:56;12.20;46.00
59961;DHT22;55902;-37.980;-63.602;2022-09-03T00:37:26;12.20;46.00
59961;DHT22;55902;-37.980;-63.602;2022-09-03T00:39:55;12.20;46.30
59961;DHT22;55902;-37.980;-63.602;2022-09-03T00:42:51;12.20;46.50
59961;DHT22;55902;-37.980;-63.602;2022-09-03T00:45:36;12.20;46.30
59961;DHT22;55902;-37.980;-63.602;2022-09-03T00:48:14;12.10;46.00
59961;DHT22;55902;-37.980;-63.602;2022-09-03T00:56:03;12.20;45.10
59961;DHT22;55902;-37.980;-63.602;2022-09-03T01:19:25;11.80;45.50
59961;DHT22;55902;-37.980;-63.602;2022-09-03T01:25:23;11.80;45.80
59961;DHT22;55902;-37.980;-63.602;2022-09-03T01:30:34;11.60;46.80
59961;DHT22;55902;-37.980;-63.602;2022-09-03T01:33:27;11.60;46.90
59961;DHT22;55902;-37.980;-63.602;2022-09-03T01:39:36;11.50;47.20
59961;DHT22;55902;-37.980;-63.602;2022-09-03T01:44:51;11.40;46.90
59961;DHT22;55902;-37.980;-63.602;2022-09-03T01:47:54;11.40;47.60
59961;DHT22;55902;-37.980;-63.602;2022-09-03T02:13:40;10.90;47.60
59961;DHT22;55902;-37.980;-63.602;2022-09-03T02:16:12;10.90;48.30
59961;DHT22;55902;-37.980;-63.602;2022-09-03T02:18:46;10.90;48.20
59961;DHT22;55902;-37.980;-63.602;2022-09-03T02:21:19;10.90;47.20
59961;DHT22;55902;-37.980;-63.602;2022-09-03T02:23:47;11.00;46.90
59961;DHT22;55902;-37.980;-63.602;2022-09-03T02:26:17;11.00;47.50
59961;DHT22;55902;-37.980;-63.602;2022-09-03T02:28:45;10.80;47.90
59961;DHT22;55902;-37.980;-63.602;2022-09-03T02:31:12;10.70;48.40
59961;DHT22;55902;-37.980;-63.602;2022-09-03T02:33:43;10.60;48.70
59961;DHT22;55902;-37.980;-63.602;2022-09-03T02:36:13;10.50;48.90
59961;DHT22;55902;-37.980;-63.602;2022-09-03T02:38:44;10.40;49.10
59961;DHT22;55902;-37.980;-63.602;2022-09-03T02:41:12;10.30;50.00
59961;DHT22;55902;-37.980;-63.602;2022-09-03T02:46:19;10.20;49.80
59961;DHT22;55902;-37.980;-63.602;2022-09-03T02:48:47;10.20;49.90
59961;DHT22;55902;-37.980;-63.602;2022-09-03T02:51:14;10.20;49.90
59961;DHT22;55902;-37.980;-63.602;2022-09-03T02:53:42;10.10;49.40
59961;DHT22;55902;-37.980;-63.602;2022-09-03T02:56:12;10.10;49.50
59961;DHT22;55902;-37.980;-63.602;2022-09-03T02:58:39;9.90;50.80
59961;DHT22;55902;-37.980;-63.602;2022-09-03T03:01:06;9.80;50.50
59961;DHT22;55902;-37.980;-63.602;2022-09-03T03:03:33;9.80;50.20
59961;DHT22;55902;-37.980;-63.602;2022-09-03T03:06:03;9.90;49.10
59961;DHT22;55902;-37.980;-63.602;2022-09-03T03:08:30;9.90;50.10
59961;DHT22;55902;-37.980;-63.602;2022-09-03T03:11:00;9.70;51.00
59961;DHT22;55902;-37.980;-63.602;2022-09-03T03:16:50;9.60;50.70
59961;DHT22;55902;-37.980;-63.602;2022-09-03T03:19:18;9.50;50.90
59961;DHT22;55902;-37.980;-63.602;2022-09-03T03:21:45;9.40;52.00
59961;DHT22;55902;-37.980;-63.602;2022-09-03T03:24:13;9.40;51.40
59961;DHT22;55902;-37.980;-63.602;2022-09-03T03:26:41;9.30;51.30
59961;DHT22;55902;-37.980;-63.602;2022-09-03T03:29:14;9.40;50.20
59961;DHT22;55902;-37.980;-63.602;2022-09-03T03:31:43;9.50;50.10
59961;DHT22;55902;-37.980;-63.602;2022-09-03T03:34:10;9.40;50.70
59961;DHT22;55902;-37.980;-63.602;2022-09-03T03:36:37;9.50;49.50
59961;DHT22;55902;-37.980;-63.602;2022-09-03T03:39:04;9.40;51.00
59961;DHT22;55902;-37.980;-63.602;2022-09-03T03:41:33;9.40;50.80
59961;DHT22;55902;-37.980;-63.602;2022-09-03T03:44:03;9.30;50.60
59961;DHT22;55902;-37.980;-63.602;2022-09-03T03:46:38;9.40;50.60
59961;DHT22;55902;-37.980;-63.602;2022-09-03T03:49:06;9.30;51.10
59961;DHT22;55902;-37.980;-63.602;2022-09-03T03:51:34;9.30;50.70
59961;DHT22;55902;-37.980;-63.602;2022-09-03T03:54:01;9.40;50.10
59961;DHT22;55902;-37.980;-63.602;2022-09-03T03:56:28;9.40;49.90
59961;DHT22;55902;-37.980;-63.602;2022-09-03T03:58:55;9.20;51.00
59961;DHT22;55902;-37.980;-63.602;2022-09-03T04:01:26;9.30;49.90
59961;DHT22;55902;-37.980;-63.602;2022-09-03T04:03:57;9.20;49.70
59961;DHT22;55902;-37.980;-63.602;2022-09-03T04:06:25;9.20;49.90
59961;DHT22;55902;-37.980;-63.602;2022-09-03T04:08:52;9.10;50.90
59961;DHT22;55902;-37.980;-63.602;2022-09-03T04:11:22;9.10;50.50
59961;DHT22;55902;-37.980;-63.602;2022-09-03T04:13:50;9.00;50.70
59961;DHT22;55902;-37.980;-63.602;2022-09-03T04:16:20;9.10;49.70
59961;DHT22;55902;-37.980;-63.602;2022-09-03T04:18:47;9.00;50.60
59961;DHT22;55902;-37.980;-63.602;2022-09-03T04:21:17;9.00;50.90
59961;DHT22;55902;-37.980;-63.602;2022-09-03T04:23:45;8.80;51.60
59961;DHT22;55902;-37.980;-63.602;2022-09-03T04:26:15;8.80;51.50
59961;DHT22;55902;-37.980;-63.602;2022-09-03T04:28:42;8.80;51.00
59961;DHT22;55902;-37.980;-63.602;2022-09-03T04:31:12;8.70;51.80
59961;DHT22;55902;-37.980;-63.602;2022-09-03T04:33:39;8.70;51.80
59961;DHT22;55902;-37.980;-63.602;2022-09-03T04:36:15;8.60;52.20
59961;DHT22;55902;-37.980;-63.602;2022-09-03T04:38:47;8.60;51.70
59961;DHT22;55902;-37.980;-63.602;2022-09-03T04:41:33;8.60;52.20
59961;DHT22;55902;-37.980;-63.602;2022-09-03T04:44:00;8.50;52.10
59961;DHT22;55902;-37.980;-63.602;2022-09-03T04:46:28;8.60;51.60
59961;DHT22;55902;-37.980;-63.602;2022-09-03T04:48:58;8.50;52.40
59961;DHT22;55902;-37.980;-63.602;2022-09-03T04:51:26;8.50;52.30
59961;DHT22;55902;-37.980;-63.602;2022-09-03T04:53:55;8.40;52.50
59961;DHT22;55902;-37.980;-63.602;2022-09-03T04:56:25;8.40;52.60
59961;DHT22;55902;-37.980;-63.602;2022-09-03T04:59:04;8.30;52.60
59961;DHT22;55902;-37.980;-63.602;2022-09-03T05:01:32;8.30;51.90
59961;DHT22;55902;-37.980;-63.602;2022-09-03T05:14:05;8.20;53.10
59961;DHT22;55902;-37.980;-63.602;2022-09-03T05:16:36;8.20;52.40
59961;DHT22;55902;-37.980;-63.602;2022-09-03T05:19:04;8.10;52.90
59961;DHT22;55902;-37.980;-63.602;2022-09-03T05:21:34;8.10;53.40
59961;DHT22;55902;-37.980;-63.602;2022-09-03T05:24:02;8.10;52.80
59961;DHT22;55902;-37.980;-63.602;2022-09-03T05:26:31;8.00;53.10
59961;DHT22;55902;-37.980;-63.602;2022-09-03T05:29:01;8.00;53.30
59961;DHT22;55902;-37.980;-63.602;2022-09-03T05:31:30;8.00;53.60
59961;DHT22;55902;-37.980;-63.602;2022-09-03T05:33:59;8.00;53.30
59961;DHT22;55902;-37.980;-63.602;2022-09-03T05:36:32;8.00;53.30
59961;DHT22;55902;-37.980;-63.602;2022-09-03T05:38:59;8.00;53.20
59961;DHT22;55902;-37.980;-63.602;2022-09-03T05:41:27;7.90;53.20
59961;DHT22;55902;-37.980;-63.602;2022-09-03T05:43:55;7.90;52.90
59961;DHT22;55902;-37.980;-63.602;2022-09-03T05:46:31;7.90;52.80
59961;DHT22;55902;-37.980;-63.602;2022-09-03T05:48:59;7.70;54.10
59961;DHT22;55902;-37.980;-63.602;2022-09-03T05:51:27;7.80;53.00
59961;DHT22;55902;-37.980;-63.602;2022-09-03T05:53:54;7.80;53.10
59961;DHT22;55902;-37.980;-63.602;2022-09-03T05:56:22;7.60;54.00
59961;DHT22;55902;-37.980;-63.602;2022-09-03T05:58:51;7.60;53.50
59961;DHT22;55902;-37.980;-63.602;2022-09-03T06:01:27;7.50;53.80
59961;DHT22;55902;-37.980;-63.602;2022-09-03T06:06:30;7.70;52.50
59961;DHT22;55902;-37.980;-63.602;2022-09-03T06:09:08;7.60;52.80
59961;DHT22;55902;-37.980;-63.602;2022-09-03T06:11:37;7.50;54.00
59961;DHT22;55902;-37.980;-63.602;2022-09-03T06:14:06;7.40;53.70
59961;DHT22;55902;-37.980;-63.602;2022-09-03T06:16:36;7.40;54.80
59961;DHT22;55902;-37.980;-63.602;2022-09-03T06:19:04;7.50;52.80
59961;DHT22;55902;-37.980;-63.602;2022-09-03T06:21:40;7.70;52.50
59961;DHT22;55902;-37.980;-63.602;2022-09-03T06:24:13;7.50;53.70
59961;DHT22;55902;-37.980;-63.602;2022-09-03T06:26:40;7.40;53.70
59961;DHT22;55902;-37.980;-63.602;2022-09-03T06:29:07;7.40;52.80
59961;DHT22;55902;-37.980;-63.602;2022-09-03T06:31:34;7.30;53.90
59961;DHT22;55902;-37.980;-63.602;2022-09-03T06:34:07;7.30;53.80
59961;DHT22;55902;-37.980;-63.602;2022-09-03T06:36:33;7.30;53.50
59961;DHT22;55902;-37.980;-63.602;2022-09-03T06:39:01;7.20;54.00
59961;DHT22;55902;-37.980;-63.602;2022-09-03T06:41:29;7.20;53.40
59961;DHT22;55902;-37.980;-63.602;2022-09-03T06:44:05;7.20;53.10
59961;DHT22;55902;-37.980;-63.602;2022-09-03T06:46:38;7.20;53.80
59961;DHT22;55902;-37.980;-63.602;2022-09-03T06:49:08;7.10;54.30
59961;DHT22;55902;-37.980;-63.602;2022-09-03T06:51:36;7.10;54.50
59961;DHT22;55902;-37.980;-63.602;2022-09-03T06:54:06;7.00;54.50
59961;DHT22;55902;-37.980;-63.602;2022-09-03T06:56:34;6.90;55.00
59961;DHT22;55902;-37.980;-63.602;2022-09-03T06:59:14;7.00;54.30
59961;DHT22;55902;-37.980;-63.602;2022-09-03T07:01:42;7.00;53.70
59961;DHT22;55902;-37.980;-63.602;2022-09-03T07:04:14;6.90;53.80
59961;DHT22;55902;-37.980;-63.602;2022-09-03T07:06:44;6.90;53.60
59961;DHT22;55902;-37.980;-63.602;2022-09-03T07:09:12;6.90;53.50
59961;DHT22;55902;-37.980;-63.602;2022-09-03T07:11:40;6.90;53.80
59961;DHT22;55902;-37.980;-63.602;2022-09-03T07:14:16;6.90;53.90
59961;DHT22;55902;-37.980;-63.602;2022-09-03T07:16:44;6.80;54.20
59961;DHT22;55902;-37.980;-63.602;2022-09-03T07:19:11;6.80;54.00
59961;DHT22;55902;-37.980;-63.602;2022-09-03T07:21:39;6.70;54.30
59961;DHT22;55902;-37.980;-63.602;2022-09-03T07:24:09;6.80;53.90
59961;DHT22;55902;-37.980;-63.602;2022-09-03T07:26:39;6.70;54.50
59961;DHT22;55902;-37.980;-63.602;2022-09-03T07:29:09;6.70;54.20
59961;DHT22;55902;-37.980;-63.602;2022-09-03T07:31:39;6.70;53.80
59961;DHT22;55902;-37.980;-63.602;2022-09-03T07:34:09;6.70;53.70
59961;DHT22;55902;-37.980;-63.602;2022-09-03T07:36:44;6.60;54.00
59961;DHT22;55902;-37.980;-63.602;2022-09-03T07:39:16;6.60;54.00
59961;DHT22;55902;-37.980;-63.602;2022-09-03T07:41:44;6.60;53.90
59961;DHT22;55902;-37.980;-63.602;2022-09-03T07:44:12;6.60;53.70
59961;DHT22;55902;-37.980;-63.602;2022-09-03T07:46:40;6.50;54.30
59961;DHT22;55902;-37.980;-63.602;2022-09-03T07:49:08;6.50;54.40
59961;DHT22;55902;-37.980;-63.602;2022-09-03T07:51:37;6.40;55.20
59961;DHT22;55902;-37.980;-63.602;2022-09-03T07:54:06;6.20;55.60
59961;DHT22;55902;-37.980;-63.602;2022-09-03T07:56:35;6.30;54.80
59961;DHT22;55902;-37.980;-63.602;2022-09-03T07:59:03;6.30;54.80
59961;DHT22;55902;-37.980;-63.602;2022-09-03T08:01:31;6.20;55.60
59961;DHT22;55902;-37.980;-63.602;2022-09-03T08:03:59;6.20;55.20
59961;DHT22;55902;-37.980;-63.602;2022-09-03T08:06:28;6.20;55.10
59961;DHT22;55902;-37.980;-63.602;2022-09-03T08:08:56;6.40;53.90
59961;DHT22;55902;-37.980;-63.602;2022-09-03T08:11:24;6.30;54.70
59961;DHT22;55902;-37.980;-63.602;2022-09-03T08:13:59;6.40;54.00
59961;DHT22;55902;-37.980;-63.602;2022-09-03T08:16:29;6.50;53.60
59961;DHT22;55902;-37.980;-63.602;2022-09-03T08:18:57;6.60;53.50
59961;DHT22;55902;-37.980;-63.602;2022-09-03T08:21:25;6.50;54.30
59961;DHT22;55902;-37.980;-63.602;2022-09-03T08:23:53;6.40;54.10
59961;DHT22;55902;-37.980;-63.602;2022-09-03T08:29:48;6.20;55.20
59961;DHT22;55902;-37.980;-63.602;2022-09-03T08:32:15;6.10;55.80
59961;DHT22;55902;-37.980;-63.602;2022-09-03T08:34:42;6.00;55.90
59961;DHT22;55902;-37.980;-63.602;2022-09-03T08:37:10;5.90;56.00
59961;DHT22;55902;-37.980;-63.602;2022-09-03T08:39:38;5.90;56.30
59961;DHT22;55902;-37.980;-63.602;2022-09-03T08:42:31;5.80;56.40
59961;DHT22;55902;-37.980;-63.602;2022-09-03T08:45:06;5.80;56.10
59961;DHT22;55902;-37.980;-63.602;2022-09-03T08:47:47;5.80;56.20
59961;DHT22;55902;-37.980;-63.602;2022-09-03T08:58:17;5.70;56.20
59961;DHT22;55902;-37.980;-63.602;2022-09-03T09:09:30;5.70;55.90
59961;DHT22;55902;-37.980;-63.602;2022-09-03T09:17:59;5.90;55.30
59961;DHT22;55902;-37.980;-63.602;2022-09-03T09:23:14;5.80;55.50
59961;DHT22;55902;-37.980;-63.602;2022-09-03T09:25:47;5.70;55.70
59961;DHT22;55902;-37.980;-63.602;2022-09-03T09:28:44;5.60;55.30
59961;DHT22;55902;-37.980;-63.602;2022-09-03T09:31:14;5.60;55.60
59961;DHT22;55902;-37.980;-63.602;2022-09-03T09:33:44;5.40;56.20
59961;DHT22;55902;-37.980;-63.602;2022-09-03T09:36:13;5.30;56.50
59961;DHT22;55902;-37.980;-63.602;2022-09-03T09:38:45;5.20;57.00
59961;DHT22;55902;-37.980;-63.602;2022-09-03T09:41:20;5.10;57.10
59961;DHT22;55902;-37.980;-63.602;2022-09-03T09:43:59;5.10;57.20
59961;DHT22;55902;-37.980;-63.602;2022-09-03T09:46:37;5.00;57.40
59961;DHT22;55902;-37.980;-63.602;2022-09-03T09:49:54;5.00;57.20
59961;DHT22;55902;-37.980;-63.602;2022-09-03T09:52:23;4.90;57.50
59961;DHT22;55902;-37.980;-63.602;2022-09-03T09:54:52;4.70;58.60
59961;DHT22;55902;-37.980;-63.602;2022-09-03T09:57:25;4.50;59.20
59961;DHT22;55902;-37.980;-63.602;2022-09-03T10:00:06;4.60;58.90
59961;DHT22;55902;-37.980;-63.602;2022-09-03T10:02:35;4.60;59.00
59961;DHT22;55902;-37.980;-63.602;2022-09-03T10:05:30;4.70;57.90
59961;DHT22;55902;-37.980;-63.602;2022-09-03T10:08:17;4.80;57.50
59961;DHT22;55902;-37.980;-63.602;2022-09-03T10:10:49;4.80;58.50
59961;DHT22;55902;-37.980;-63.602;2022-09-03T10:13:43;4.80;57.90
59961;DHT22;55902;-37.980;-63.602;2022-09-03T10:16:26;4.70;58.50
59961;DHT22;55902;-37.980;-63.602;2022-09-03T10:19:08;4.60;58.60
59961;DHT22;55902;-37.980;-63.602;2022-09-03T10:26:57;4.40;59.10
59961;DHT22;55902;-37.980;-63.602;2022-09-03T10:29:24;4.50;59.00
59961;DHT22;55902;-37.980;-63.602;2022-09-03T10:32:02;4.50;58.90
59961;DHT22;55902;-37.980;-63.602;2022-09-03T10:34:43;4.50;59.30
59961;DHT22;55902;-37.980;-63.602;2022-09-03T10:45:57;4.40;59.30
59961;DHT22;55902;-37.980;-63.602;2022-09-03T10:51:25;4.40;59.40
59961;DHT22;55902;-37.980;-63.602;2022-09-03T11:05:30;4.30;60.00
59961;DHT22;55902;-37.980;-63.602;2022-09-03T11:08:04;4.50;59.60
59961;DHT22;55902;-37.980;-63.602;2022-09-03T11:10:37;4.60;60.30
59961;DHT22;55902;-37.980;-63.602;2022-09-03T11:13:39;4.70;58.90
59961;DHT22;55902;-37.980;-63.602;2022-09-03T11:16:10;4.80;58.50
59961;DHT22;55902;-37.980;-63.602;2022-09-03T11:18:56;4.90;58.70
59961;DHT22;55902;-37.980;-63.602;2022-09-03T11:21:26;5.00;58.40
59961;DHT22;55902;-37.980;-63.602;2022-09-03T11:24:16;5.20;57.80
59961;DHT22;55902;-37.980;-63.602;2022-09-03T11:26:46;5.40;57.60
59961;DHT22;55902;-37.980;-63.602;2022-09-03T11:34:30;6.70;55.70
59961;DHT22;55902;-37.980;-63.602;2022-09-03T11:37:17;7.30;54.60
59961;DHT22;55902;-37.980;-63.602;2022-09-03T11:39:52;7.90;53.70
59961;DHT22;55902;-37.980;-63.602;2022-09-03T11:42:28;8.30;52.60
59961;DHT22;55902;-37.980;-63.602;2022-09-03T11:45:11;8.70;51.30
59961;DHT22;55902;-37.980;-63.602;2022-09-03T11:47:43;9.10;50.40
59961;DHT22;55902;-37.980;-63.602;2022-09-03T11:50:30;9.30;49.50
59961;DHT22;55902;-37.980;-63.602;2022-09-03T11:53:10;9.70;49.10
59961;DHT22;55902;-37.980;-63.602;2022-09-03T11:55:58;10.00;48.30
59961;DHT22;55902;-37.980;-63.602;2022-09-03T11:58:56;10.30;48.00
59961;DHT22;55902;-37.980;-63.602;2022-09-03T12:01:18;10.70;47.30
59961;DHT22;55902;-37.980;-63.602;2022-09-03T12:04:03;10.80;46.50
59961;DHT22;55902;-37.980;-63.602;2022-09-03T12:15:33;12.10;43.30
59961;DHT22;55902;-37.980;-63.602;2022-09-03T12:29:31;13.80;40.00
59961;DHT22;55902;-37.980;-63.602;2022-09-03T12:32:07;14.20;38.90
59961;DHT22;55902;-37.980;-63.602;2022-09-03T12:34:34;14.60;38.50
59961;DHT22;55902;-37.980;-63.602;2022-09-03T12:37:01;14.90;37.60
59961;DHT22;55902;-37.980;-63.602;2022-09-03T12:39:28;15.10;37.00
59961;DHT22;55902;-37.980;-63.602;2022-09-03T12:42:08;15.20;36.00
59961;DHT22;55902;-37.980;-63.602;2022-09-03T12:44:39;15.50;35.40
59961;DHT22;55902;-37.980;-63.602;2022-09-03T12:47:12;15.70;35.10
59961;DHT22;55902;-37.980;-63.602;2022-09-03T12:49:41;15.80;35.00
59961;DHT22;55902;-37.980;-63.602;2022-09-03T12:52:19;16.00;34.20
59961;DHT22;55902;-37.980;-63.602;2022-09-03T12:57:34;16.40;34.40
59961;DHT22;55902;-37.980;-63.602;2022-09-03T13:00:08;16.50;33.60
59961;DHT22;55902;-37.980;-63.602;2022-09-03T13:06:05;16.50;33.30
59961;DHT22;55902;-37.980;-63.602;2022-09-03T13:08:40;17.00;34.40
59961;DHT22;55902;-37.980;-63.602;2022-09-03T13:14:46;17.20;32.60
59961;DHT22;55902;-37.980;-63.602;2022-09-03T13:23:01;17.70;31.70
59961;DHT22;55902;-37.980;-63.602;2022-09-03T13:25:46;17.90;30.90
59961;DHT22;55902;-37.980;-63.602;2022-09-03T13:28:43;18.10;30.80
59961;DHT22;55902;-37.980;-63.602;2022-09-03T13:31:35;18.10;31.20
59961;DHT22;55902;-37.980;-63.602;2022-09-03T13:34:20;18.10;31.00
59961;DHT22;55902;-37.980;-63.602;2022-09-03T13:39:50;18.80;31.30
59961;DHT22;55902;-37.980;-63.602;2022-09-03T13:45:30;19.30;30.00
59961;DHT22;55902;-37.980;-63.602;2022-09-03T13:51:02;19.70;29.00
59961;DHT22;55902;-37.980;-63.602;2022-09-03T13:53:45;20.00;28.90
59961;DHT22;55902;-37.980;-63.602;2022-09-03T14:02:17;21.40;28.10
59961;DHT22;55902;-37.980;-63.602;2022-09-03T14:10:56;22.20;26.10
59961;DHT22;55902;-37.980;-63.602;2022-09-03T14:13:41;22.30;25.40
59961;DHT22;55902;-37.980;-63.602;2022-09-03T14:16:35;22.50;25.30
59961;DHT22;55902;-37.980;-63.602;2022-09-03T14:19:37;22.70;24.80
59961;DHT22;55902;-37.980;-63.602;2022-09-03T14:27:22;22.80;24.30
59961;DHT22;55902;-37.980;-63.602;2022-09-03T14:29:57;22.70;24.40
59961;DHT22;55902;-37.980;-63.602;2022-09-03T14:41:03;23.30;24.90
59961;DHT22;55902;-37.980;-63.602;2022-09-03T14:43:54;23.60;24.70
59961;DHT22;55902;-37.980;-63.602;2022-09-03T14:46:48;24.10;24.80
59961;DHT22;55902;-37.980;-63.602;2022-09-03T14:49:39;24.30;23.40
59961;DHT22;55902;-37.980;-63.602;2022-09-03T14:58:17;24.90;24.10
59961;DHT22;55902;-37.980;-63.602;2022-09-03T15:00:48;24.70;23.00
59961;DHT22;55902;-37.980;-63.602;2022-09-03T15:06:40;25.20;22.50
59961;DHT22;55902;-37.980;-63.602;2022-09-03T15:09:27;25.20;22.70
59961;DHT22;55902;-37.980;-63.602;2022-09-03T15:12:07;25.50;22.80
59961;DHT22;55902;-37.980;-63.602;2022-09-03T15:15:09;25.70;23.00
59961;DHT22;55902;-37.980;-63.602;2022-09-03T15:26:28;25.50;22.40
59961;DHT22;55902;-37.980;-63.602;2022-09-03T15:37:44;26.00;22.20
59961;DHT22;55902;-37.980;-63.602;2022-09-03T15:40:27;26.00;23.00
59961;DHT22;55902;-37.980;-63.602;2022-09-03T15:43:08;25.90;22.00
59961;DHT22;55902;-37.980;-63.602;2022-09-03T15:45:51;26.00;22.20
59961;DHT22;55902;-37.980;-63.602;2022-09-03T15:48:31;26.20;22.40
59961;DHT22;55902;-37.980;-63.602;2022-09-03T15:54:09;26.50;22.10
59961;DHT22;55902;-37.980;-63.602;2022-09-03T15:56:52;26.70;21.20
59961;DHT22;55902;-37.980;-63.602;2022-09-03T15:59:39;26.90;22.70
59961;DHT22;55902;-37.980;-63.602;2022-09-03T16:02:37;27.00;21.30
59961;DHT22;55902;-37.980;-63.602;2022-09-03T16:05:23;27.00;20.70
59961;DHT22;55902;-37.980;-63.602;2022-09-03T16:19:20;26.80;20.40
59961;DHT22;55902;-37.980;-63.602;2022-09-03T16:25:03;27.40;21.20
59961;DHT22;55902;-37.980;-63.602;2022-09-03T16:27:54;27.60;20.20
59961;DHT22;55902;-37.980;-63.602;2022-09-03T16:30:49;27.30;20.00
59961;DHT22;55902;-37.980;-63.602;2022-09-03T16:41:45;27.40;20.10
59961;DHT22;55902;-37.980;-63.602;2022-09-03T16:44:36;27.60;19.60
59961;DHT22;55902;-37.980;-63.602;2022-09-03T16:58:11;28.10;19.20
59961;DHT22;55902;-37.980;-63.602;2022-09-03T17:06:12;28.40;18.90
59961;DHT22;55902;-37.980;-63.602;2022-09-03T17:08:50;28.40;19.20
59961;DHT22;55902;-37.980;-63.602;2022-09-03T17:19:32;28.90;19.00
59961;DHT22;55902;-37.980;-63.602;2022-09-03T17:24:39;28.80;19.00
59961;DHT22;55902;-37.980;-63.602;2022-09-03T17:30:08;29.20;19.30
59961;DHT22;55902;-37.980;-63.602;2022-09-03T17:41:59;29.50;18.20
59961;DHT22;55902;-37.980;-63.602;2022-09-03T17:47:33;29.70;18.90
59961;DHT22;55902;-37.980;-63.602;2022-09-03T17:50:07;29.50;18.30
59961;DHT22;55902;-37.980;-63.602;2022-09-03T17:55:41;29.80;18.60
59961;DHT22;55902;-37.980;-63.602;2022-09-03T18:01:15;29.40;18.20
59961;DHT22;55902;-37.980;-63.602;2022-09-03T18:03:46;29.50;18.80
59961;DHT22;55902;-37.980;-63.602;2022-09-03T18:06:49;29.70;18.00
59961;DHT22;55902;-37.980;-63.602;2022-09-03T18:19:51;29.90;18.50
59961;DHT22;55902;-37.980;-63.602;2022-09-03T18:23:04;30.50;17.50
59961;DHT22;55902;-37.980;-63.602;2022-09-03T18:26:04;30.30;16.90
59961;DHT22;55902;-37.980;-63.602;2022-09-03T18:29:06;30.30;17.30
59961;DHT22;55902;-37.980;-63.602;2022-09-03T18:31:53;30.50;17.10
59961;DHT22;55902;-37.980;-63.602;2022-09-03T18:34:38;30.60;17.80
59961;DHT22;55902;-37.980;-63.602;2022-09-03T18:37:26;30.50;17.10
59961;DHT22;55902;-37.980;-63.602;2022-09-03T18:40:18;30.10;17.30
59961;DHT22;55902;-37.980;-63.602;2022-09-03T18:43:35;30.30;17.20
59961;DHT22;55902;-37.980;-63.602;2022-09-03T18:47:02;30.20;17.20
59961;DHT22;55902;-37.980;-63.602;2022-09-03T18:53:01;30.50;17.40
59961;DHT22;55902;-37.980;-63.602;2022-09-03T18:56:13;30.40;17.50
59961;DHT22;55902;-37.980;-63.602;2022-09-03T18:59:03;30.30;16.90
59961;DHT22;55902;-37.980;-63.602;2022-09-03T19:01:52;30.10;17.10
59961;DHT22;55902;-37.980;-63.602;2022-09-03T19:17:45;31.00;17.80
59961;DHT22;55902;-37.980;-63.602;2022-09-03T19:20:36;30.30;17.40
59961;DHT22;55902;-37.980;-63.602;2022-09-03T19:23:24;29.80;17.30
59961;DHT22;55902;-37.980;-63.602;2022-09-03T19:26:39;28.80;17.40
59961;DHT22;55902;-37.980;-63.602;2022-09-03T19:39:25;26.40;19.40
59961;DHT22;55902;-37.980;-63.602;2022-09-03T19:45:21;25.20;20.00
59961;DHT22;55902;-37.980;-63.602;2022-09-03T19:48:33;24.80;20.30
59961;DHT22;55902;-37.980;-63.602;2022-09-03T19:51:24;24.50;20.80
59961;DHT22;55902;-37.980;-63.602;2022-09-03T19:54:13;24.40;21.20
59961;DHT22;55902;-37.980;-63.602;2022-09-03T19:56:59;24.40;20.80
59961;DHT22;55902;-37.980;-63.602;2022-09-03T19:59:47;24.20;21.10
59961;DHT22;55902;-37.980;-63.602;2022-09-03T20:02:33;24.00;20.70
59961;DHT22;55902;-37.980;-63.602;2022-09-03T20:05:20;23.90;21.20
59961;DHT22;55902;-37.980;-63.602;2022-09-03T20:08:05;23.90;21.50
59961;DHT22;55902;-37.980;-63.602;2022-09-03T20:10:55;23.80;21.60
59961;DHT22;55902;-37.980;-63.602;2022-09-03T20:13:22;23.70;21.50
59961;DHT22;55902;-37.980;-63.602;2022-09-03T20:16:22;23.70;21.50
59961;DHT22;55902;-37.980;-63.602;2022-09-03T20:27:16;23.60;21.60
59961;DHT22;55902;-37.980;-63.602;2022-09-03T20:35:18;23.50;22.00
59961;DHT22;55902;-37.980;-63.602;2022-09-03T20:38:03;23.60;22.00
59961;DHT22;55902;-37.980;-63.602;2022-09-03T20:46:17;23.40;21.80
59961;DHT22;55902;-37.980;-63.602;2022-09-03T20:51:55;23.40;22.10
59961;DHT22;55902;-37.980;-63.602;2022-09-03T20:57:17;23.10;22.60
59961;DHT22;55902;-37.980;-63.602;2022-09-03T21:03:20;23.00;23.20
59961;DHT22;55902;-37.980;-63.602;2022-09-03T21:08:57;22.90;23.30
59961;DHT22;55902;-37.980;-63.602;2022-09-03T21:25:39;22.30;23.80
59961;DHT22;55902;-37.980;-63.602;2022-09-03T21:28:38;22.20;23.90
59961;DHT22;55902;-37.980;-63.602;2022-09-03T21:31:22;22.10;24.20
59961;DHT22;55902;-37.980;-63.602;2022-09-03T21:34:06;21.80;24.60
59961;DHT22;55902;-37.980;-63.602;2022-09-03T21:36:35;21.70;24.80
59961;DHT22;55902;-37.980;-63.602;2022-09-03T21:41:42;21.30;25.00
59961;DHT22;55902;-37.980;-63.602;2022-09-03T21:47:26;21.10;25.10
59961;DHT22;55902;-37.980;-63.602;2022-09-03T21:50:10;20.90;25.30
59961;DHT22;55902;-37.980;-63.602;2022-09-03T22:00:59;20.30;26.00
59961;DHT22;55902;-37.980;-63.602;2022-09-03T22:03:31;20.10;26.30
59961;DHT22;55902;-37.980;-63.602;2022-09-03T22:06:10;19.90;26.70
59961;DHT22;55902;-37.980;-63.602;2022-09-03T22:09:12;19.80;27.50
59961;DHT22;55902;-37.980;-63.602;2022-09-03T22:11:56;19.60;27.90
59961;DHT22;55902;-37.980;-63.602;2022-09-03T22:14:26;19.40;27.90
59961;DHT22;55902;-37.980;-63.602;2022-09-03T22:19:45;19.10;28.20
59961;DHT22;55902;-37.980;-63.602;2022-09-03T22:25:54;18.90;28.10
59961;DHT22;55902;-37.980;-63.602;2022-09-03T22:31:53;18.60;28.10
59961;DHT22;55902;-37.980;-63.602;2022-09-03T22:40:23;18.20;27.60
59961;DHT22;55902;-37.980;-63.602;2022-09-03T22:51:01;17.80;28.10
59961;DHT22;55902;-37.980;-63.602;2022-09-03T22:56:18;17.60;28.30
59961;DHT22;55902;-37.980;-63.602;2022-09-03T22:58:54;17.60;28.00
59961;DHT22;55902;-37.980;-63.602;2022-09-03T23:01:36;17.60;27.90
59961;DHT22;55902;-37.980;-63.602;2022-09-03T23:04:28;17.50;28.50
59961;DHT22;55902;-37.980;-63.602;2022-09-03T23:09:56;17.20;28.10
59961;DHT22;55902;-37.980;-63.602;2022-09-03T23:15:07;17.10;28.30
59961;DHT22;55902;-37.980;-63.602;2022-09-03T23:17:48;17.00;28.30
59961;DHT22;55902;-37.980;-63.602;2022-09-03T23:20:24;17.00;28.30
59961;DHT22;55902;-37.980;-63.602;2022-09-03T23:25:48;16.80;28.60
59961;DHT22;55902;-37.980;-63.602;2022-09-03T23:30:49;16.50;29.10
59961;DHT22;55902;-37.980;-63.602;2022-09-03T23:33:17;16.50;29.10